Ree — C6QK9 — position and weather

sailwx.info

Track history (hours):
 
Tides and Currents Weather Stations Pressure Air Temp Water Temp Dewpoint Dewpoint Depression Visibility Wind Speed Wind Dir Waves Ship Positions

Ree

Last reported at 2018-Jan-22 07:28 UTC. Time now 2018-Jan-22 07:51 UTC.
Position N 17°01' W 061°46'.

Length 34 m.

Type: Pleasure craft. MMSI: 308008000.

Date/timePositionNaut miles runAvg speedWind from/ knotsBaromVisibWave heightAir tempDewpointWater temp
2018-Jan-22 07:28N 17°01' W 061°46'0 0.0
2018-Jan-22 06:58N 17°01' W 061°46'0 0.0
2018-Jan-22 06:28N 17°01' W 061°46'0 0.0
2018-Jan-22 05:58N 17°01' W 061°46'0 0.0
2018-Jan-22 05:28N 17°01' W 061°46'0 0.0
2018-Jan-22 04:58N 17°01' W 061°46'0 0.0
2018-Jan-22 04:28N 17°01' W 061°46'0 0.0
2018-Jan-22 03:58N 17°01' W 061°46'0 0.0
2018-Jan-22 03:28N 17°01' W 061°46'0 0.0
2018-Jan-22 02:58N 17°01' W 061°46'0 0.0
2018-Jan-22 02:28N 17°01' W 061°46'0 0.0
2018-Jan-22 01:58N 17°01' W 061°46'0 0.0
2018-Jan-22 01:28N 17°01' W 061°46'0 0.0
2018-Jan-22 00:58N 17°01' W 061°46'0 0.0
2018-Jan-22 00:28N 17°01' W 061°46'0 0.0
2018-Jan-21 23:58N 17°01' W 061°46'0 0.0
2018-Jan-21 23:26N 17°01' W 061°46'0 0.0
2018-Jan-21 22:59N 17°01' W 061°46'0 0.0
2018-Jan-21 22:29N 17°01' W 061°46'0 0.0
2018-Jan-21 21:59N 17°01' W 061°46'0 0.0
2018-Jan-21 21:29N 17°01' W 061°46'0 0.0
2018-Jan-21 20:59N 17°01' W 061°46'0 0.0
2018-Jan-21 20:29N 17°01' W 061°46'0 0.0
2018-Jan-21 19:59N 17°01' W 061°46'0 0.0
2018-Jan-21 19:29N 17°01' W 061°46'0 0.0
2018-Jan-21 18:59N 17°01' W 061°46'0 0.0
2018-Jan-21 18:29N 17°01' W 061°46'0 0.0
2018-Jan-21 17:59N 17°01' W 061°46'0 0.0
2018-Jan-21 17:29N 17°01' W 061°46'0 0.0
2018-Jan-21 16:59N 17°01' W 061°46'0 0.0
2018-Jan-21 16:29N 17°01' W 061°46'0 0.0
2018-Jan-21 15:59N 17°01' W 061°46'0 0.0
2018-Jan-21 15:29N 17°01' W 061°46'0 0.0
2018-Jan-21 15:00N 17°01' W 061°46'0 0.0
2018-Jan-21 14:30N 17°01' W 061°46'0 0.0
2018-Jan-21 14:00N 17°01' W 061°46'0 0.0
2018-Jan-21 13:30N 17°01' W 061°46'0 0.0
2018-Jan-21 12:57N 17°01' W 061°46'0 0.0
2018-Jan-21 12:27N 17°01' W 061°46'0 0.0
2018-Jan-21 12:00N 17°01' W 061°46'0 0.0
2018-Jan-21 11:30N 17°01' W 061°46'0 0.0
2018-Jan-21 11:00N 17°01' W 061°46'0 0.0
2018-Jan-21 10:27N 17°01' W 061°46'0 0.0
2018-Jan-21 10:00N 17°01' W 061°46'0 0.0
2018-Jan-21 09:30N 17°01' W 061°46'0 0.0
2018-Jan-21 09:00N 17°01' W 061°46'0 0.0
2018-Jan-21 08:30N 17°01' W 061°46'0 0.0
2018-Jan-21 08:00N 17°01' W 061°46'0 0.0
2018-Jan-21 07:30N 17°01' W 061°46'0 0.0
2018-Jan-21 07:00N 17°01' W 061°46'0 0.0
2018-Jan-21 06:30N 17°01' W 061°46'0 0.0
2018-Jan-21 05:57N 17°01' W 061°46'0 0.0
2018-Jan-21 05:30N 17°01' W 061°46'0 0.0
2018-Jan-21 05:00N 17°01' W 061°46'0 0.0
2018-Jan-21 04:30N 17°01' W 061°46'0 0.0
2018-Jan-21 04:00N 17°01' W 061°46'0 0.0
2018-Jan-21 03:30N 17°01' W 061°46'0 0.0
2018-Jan-21 03:00N 17°01' W 061°46'0 0.0
2018-Jan-21 02:30N 17°01' W 061°46'0 0.0
2018-Jan-21 02:00N 17°01' W 061°46'0 0.0
2018-Jan-21 01:30N 17°01' W 061°46'0 0.0
2018-Jan-21 01:00N 17°01' W 061°46'0 0.0
2018-Jan-21 00:30N 17°01' W 061°46'0 0.0
2018-Jan-21 00:00N 17°01' W 061°46'0 0.0
2018-Jan-20 23:24N 17°01' W 061°46'0 0.0
2018-Jan-20 22:54N 17°01' W 061°46'0 0.0
2018-Jan-20 22:30N 17°01' W 061°46'0 0.0
2018-Jan-20 22:00N 17°01' W 061°46'0 0.0
2018-Jan-20 21:30N 17°01' W 061°46'0 0.0
2018-Jan-20 21:00N 17°01' W 061°46'0 0.0
2018-Jan-20 20:30N 17°01' W 061°46'0 0.0
2018-Jan-20 20:00N 17°01' W 061°46'0 0.0
2018-Jan-20 19:30N 17°01' W 061°46'0 0.2
2018-Jan-20 19:00N 17°01' W 061°46'2 3.6
2018-Jan-20 18:30N 17°00' W 061°48'4 7.0
2018-Jan-20 18:00N 16°60' W 061°51'3 6.8
2018-Jan-20 17:30N 17°00' W 061°55'4 7.1
2018-Jan-20 17:00N 17°02' W 061°58'4 7.9
2018-Jan-20 16:28N 17°05' W 062°01'4 8.5
2018-Jan-20 16:00N 17°07' W 062°05'4 8.2
2018-Jan-20 15:30N 17°10' W 062°08'4 7.3
2018-Jan-20 14:57N 17°13' W 062°11'3 7.2
2018-Jan-20 14:30N 17°15' W 062°13'3 7.1
2018-Jan-20 14:00N 17°17' W 062°16'4 7.2
2018-Jan-20 13:26N 17°20' W 062°19'49 8.0
2018-Jan-20 07:20N 17°52' W 062°58'3 8.1
2018-Jan-20 07:00N 17°54' W 063°00'4 8.4
2018-Jan-20 06:30N 17°57' W 063°03'4 7.1
2018-Jan-20 06:00N 17°60' W 063°06'4 7.9
2018-Jan-20 05:30N 18°02' W 063°09'3 6.3
2018-Jan-20 04:58N 18°06' W 063°09'3 2.3
2018-Jan-20 03:34N 18°04' W 063°06'0 0.0
2018-Jan-20 03:19N 18°04' W 063°06'0 0.0
2018-Jan-20 02:49N 18°04' W 063°06'0 0.0
2018-Jan-20 02:20N 18°04' W 063°06'0 0.0
2018-Jan-20 01:49N 18°04' W 063°06'0 0.0
2018-Jan-20 01:19N 18°04' W 063°06'0 0.0
2018-Jan-20 00:49N 18°04' W 063°06'0 0.0
2018-Jan-20 00:19N 18°04' W 063°06'0 0.0
2018-Jan-19 23:52N 18°04' W 063°06'0 0.0
2018-Jan-19 23:22N 18°04' W 063°06'0 0.0
2018-Jan-19 22:37N 18°04' W 063°06'0 0.0
2018-Jan-19 22:25N 18°04' W 063°06'0 0.0
2018-Jan-19 21:52N 18°04' W 063°06'0 0.0
2018-Jan-19 21:25N 18°04' W 063°06'0 0.0
2018-Jan-19 20:40N 18°04' W 063°06'0 0.0
2018-Jan-19 20:25N 18°04' W 063°06'0 0.0
2018-Jan-19 19:52N 18°04' W 063°06'0 0.0
2018-Jan-19 19:28N 18°04' W 063°06'0 0.0
2018-Jan-19 18:55N 18°04' W 063°06'0 0.3
2018-Jan-19 18:29N 18°04' W 063°06'  
Track history (hours):
 
Tides and Currents Weather Stations Pressure Air Temp Water Temp Dewpoint Dewpoint Depression Visibility Wind Speed Wind Dir Waves Ship Positions

Ree

Last reported at 2018-Jan-22 07:28 UTC. Time now 2018-Jan-22 07:51 UTC.
Position N 17°01' W 061°46'.

Length 34 m.

Type: Pleasure craft. MMSI: 308008000.

Date/timePositionNaut miles runAvg speedWind from/ knotsBaromVisibWave heightAir tempDewpointWater temp
2018-Jan-22 07:28N 17°01' W 061°46'0 0.0
2018-Jan-22 06:58N 17°01' W 061°46'0 0.0
2018-Jan-22 06:28N 17°01' W 061°46'0 0.0
2018-Jan-22 05:58N 17°01' W 061°46'0 0.0
2018-Jan-22 05:28N 17°01' W 061°46'0 0.0
2018-Jan-22 04:58N 17°01' W 061°46'0 0.0
2018-Jan-22 04:28N 17°01' W 061°46'0 0.0
2018-Jan-22 03:58N 17°01' W 061°46'0 0.0
2018-Jan-22 03:28N 17°01' W 061°46'0 0.0
2018-Jan-22 02:58N 17°01' W 061°46'0 0.0
2018-Jan-22 02:28N 17°01' W 061°46'0 0.0
2018-Jan-22 01:58N 17°01' W 061°46'0 0.0
2018-Jan-22 01:28N 17°01' W 061°46'0 0.0
2018-Jan-22 00:58N 17°01' W 061°46'0 0.0
2018-Jan-22 00:28N 17°01' W 061°46'0 0.0
2018-Jan-21 23:58N 17°01' W 061°46'0 0.0
2018-Jan-21 23:26N 17°01' W 061°46'0 0.0
2018-Jan-21 22:59N 17°01' W 061°46'0 0.0
2018-Jan-21 22:29N 17°01' W 061°46'0 0.0
2018-Jan-21 21:59N 17°01' W 061°46'0 0.0
2018-Jan-21 21:29N 17°01' W 061°46'0 0.0
2018-Jan-21 20:59N 17°01' W 061°46'0 0.0
2018-Jan-21 20:29N 17°01' W 061°46'0 0.0
2018-Jan-21 19:59N 17°01' W 061°46'0 0.0
2018-Jan-21 19:29N 17°01' W 061°46'0 0.0
2018-Jan-21 18:59N 17°01' W 061°46'0 0.0
2018-Jan-21 18:29N 17°01' W 061°46'0 0.0
2018-Jan-21 17:59N 17°01' W 061°46'0 0.0
2018-Jan-21 17:29N 17°01' W 061°46'0 0.0
2018-Jan-21 16:59N 17°01' W 061°46'0 0.0
2018-Jan-21 16:29N 17°01' W 061°46'0 0.0
2018-Jan-21 15:59N 17°01' W 061°46'0 0.0
2018-Jan-21 15:29N 17°01' W 061°46'0 0.0
2018-Jan-21 15:00N 17°01' W 061°46'0 0.0
2018-Jan-21 14:30N 17°01' W 061°46'0 0.0
2018-Jan-21 14:00N 17°01' W 061°46'0 0.0
2018-Jan-21 13:30N 17°01' W 061°46'0 0.0
2018-Jan-21 12:57N 17°01' W 061°46'0 0.0
2018-Jan-21 12:27N 17°01' W 061°46'0 0.0
2018-Jan-21 12:00N 17°01' W 061°46'0 0.0
2018-Jan-21 11:30N 17°01' W 061°46'0 0.0
2018-Jan-21 11:00N 17°01' W 061°46'0 0.0
2018-Jan-21 10:27N 17°01' W 061°46'0 0.0
2018-Jan-21 10:00N 17°01' W 061°46'0 0.0
2018-Jan-21 09:30N 17°01' W 061°46'0 0.0
2018-Jan-21 09:00N 17°01' W 061°46'0 0.0
2018-Jan-21 08:30N 17°01' W 061°46'0 0.0
2018-Jan-21 08:00N 17°01' W 061°46'0 0.0
2018-Jan-21 07:30N 17°01' W 061°46'0 0.0
2018-Jan-21 07:00N 17°01' W 061°46'0 0.0
2018-Jan-21 06:30N 17°01' W 061°46'0 0.0
2018-Jan-21 05:57N 17°01' W 061°46'0 0.0
2018-Jan-21 05:30N 17°01' W 061°46'0 0.0
2018-Jan-21 05:00N 17°01' W 061°46'0 0.0
2018-Jan-21 04:30N 17°01' W 061°46'0 0.0
2018-Jan-21 04:00N 17°01' W 061°46'0 0.0
2018-Jan-21 03:30N 17°01' W 061°46'0 0.0
2018-Jan-21 03:00N 17°01' W 061°46'0 0.0
2018-Jan-21 02:30N 17°01' W 061°46'0 0.0
2018-Jan-21 02:00N 17°01' W 061°46'0 0.0
2018-Jan-21 01:30N 17°01' W 061°46'0 0.0
2018-Jan-21 01:00N 17°01' W 061°46'0 0.0
2018-Jan-21 00:30N 17°01' W 061°46'0 0.0
2018-Jan-21 00:00N 17°01' W 061°46'0 0.0
2018-Jan-20 23:24N 17°01' W 061°46'0 0.0
2018-Jan-20 22:54N 17°01' W 061°46'0 0.0
2018-Jan-20 22:30N 17°01' W 061°46'0 0.0
2018-Jan-20 22:00N 17°01' W 061°46'0 0.0
2018-Jan-20 21:30N 17°01' W 061°46'0 0.0
2018-Jan-20 21:00N 17°01' W 061°46'0 0.0
2018-Jan-20 20:30N 17°01' W 061°46'0 0.0
2018-Jan-20 20:00N 17°01' W 061°46'0 0.0
2018-Jan-20 19:30N 17°01' W 061°46'0 0.2
2018-Jan-20 19:00N 17°01' W 061°46'2 3.6
2018-Jan-20 18:30N 17°00' W 061°48'4 7.0
2018-Jan-20 18:00N 16°60' W 061°51'3 6.8
2018-Jan-20 17:30N 17°00' W 061°55'4 7.1
2018-Jan-20 17:00N 17°02' W 061°58'4 7.9
2018-Jan-20 16:28N 17°05' W 062°01'4 8.5
2018-Jan-20 16:00N 17°07' W 062°05'4 8.2
2018-Jan-20 15:30N 17°10' W 062°08'4 7.3
2018-Jan-20 14:57N 17°13' W 062°11'3 7.2
2018-Jan-20 14:30N 17°15' W 062°13'3 7.1
2018-Jan-20 14:00N 17°17' W 062°16'4 7.2
2018-Jan-20 13:26N 17°20' W 062°19'49 8.0
2018-Jan-20 07:20N 17°52' W 062°58'3 8.1
2018-Jan-20 07:00N 17°54' W 063°00'4 8.4
2018-Jan-20 06:30N 17°57' W 063°03'4 7.1
2018-Jan-20 06:00N 17°60' W 063°06'4 7.9
2018-Jan-20 05:30N 18°02' W 063°09'3 6.3
2018-Jan-20 04:58N 18°06' W 063°09'3 2.3
2018-Jan-20 03:34N 18°04' W 063°06'0 0.0
2018-Jan-20 03:19N 18°04' W 063°06'0 0.0
2018-Jan-20 02:49N 18°04' W 063°06'0 0.0
2018-Jan-20 02:20N 18°04' W 063°06'0 0.0
2018-Jan-20 01:49N 18°04' W 063°06'0 0.0
2018-Jan-20 01:19N 18°04' W 063°06'0 0.0
2018-Jan-20 00:49N 18°04' W 063°06'0 0.0
2018-Jan-20 00:19N 18°04' W 063°06'0 0.0
2018-Jan-19 23:52N 18°04' W 063°06'0 0.0
2018-Jan-19 23:22N 18°04' W 063°06'0 0.0
2018-Jan-19 22:37N 18°04' W 063°06'0 0.0
2018-Jan-19 22:25N 18°04' W 063°06'0 0.0
2018-Jan-19 21:52N 18°04' W 063°06'0 0.0
2018-Jan-19 21:25N 18°04' W 063°06'0 0.0
2018-Jan-19 20:40N 18°04' W 063°06'0 0.0
2018-Jan-19 20:25N 18°04' W 063°06'0 0.0
2018-Jan-19 19:52N 18°04' W 063°06'0 0.0
2018-Jan-19 19:28N 18°04' W 063°06'0 0.0
2018-Jan-19 18:55N 18°04' W 063°06'0 0.3
2018-Jan-19 18:29N 18°04' W 063°06'  

Dump ship's entire track history